Northrop, Minnesota
Current Conditions -  °F | °C
As of 6:15 PM on Monday 24 Nov 2014 (Local Time) from KFRM Reporting Station
Overcast Overcast  
Wind Chill:   Ceiling: 1900
Heat Index: 18°   Visibility: 10mi
Dew Point: 10°   Wind: 23mph
Humidity: 73%   Direction: 290°WNW
Pressure: 29.79"   Gusts: 32mph
Location:  43.74°N, 94.44°W
Report Text: KFRM 250015Z AUTO 29020G28KT 10SM BKN019 OVC029 M08/M12 A2979 RMK AO1
Loading
Personal Weather Stations






























Interactive Weather Map New forecast layout! Learn more

10-Day Weather Forecast

Advertisements
Track Severe Weather on mobile